createdAt,value
2022-08-25T00:02:02.013Z,101381.09
2022-08-25T00:04:30.289Z,101381.50
2022-08-25T00:07:02.707Z,101373.94
2022-08-25T00:09:31.980Z,101377.66
2022-08-25T00:11:59.500Z,101365.31
2022-08-25T00:14:33.606Z,101363.25
2022-08-25T00:17:01.060Z,101362.63
2022-08-25T00:19:32.414Z,101354.19
2022-08-25T00:22:01.454Z,101351.84
2022-08-25T00:24:29.221Z,101349.41
2022-08-25T00:26:58.834Z,101351.56
2022-08-25T00:29:26.654Z,101343.84
2022-08-25T00:31:55.937Z,101343.34
2022-08-25T00:34:28.368Z,101338.75
2022-08-25T00:36:55.777Z,101342.41
2022-08-25T00:39:24.174Z,101337.88
2022-08-25T00:41:57.046Z,101339.03
2022-08-25T00:44:27.796Z,101335.59
2022-08-25T00:46:57.825Z,101335.28
2022-08-25T00:49:35.748Z,101334.91
2022-08-25T00:52:06.510Z,101345.59
2022-08-25T00:54:48.120Z,101333.56
2022-08-25T00:57:19.067Z,101345.06
2022-08-25T00:59:56.949Z,101337.88
2022-08-25T01:02:24.014Z,101342.38
2022-08-25T01:04:54.789Z,101347.81
2022-08-25T01:07:23.889Z,101341.19
2022-08-25T01:09:53.354Z,101347.44
2022-08-25T01:12:21.156Z,101339.16
2022-08-25T01:14:50.025Z,101355.38
2022-08-25T01:17:21.940Z,101353.88
2022-08-25T01:19:48.823Z,101350.91
2022-08-25T01:22:16.652Z,101346.59
2022-08-25T01:25:29.576Z,101357.09
2022-08-25T01:27:56.770Z,101347.44
2022-08-25T01:30:25.202Z,101345.94
2022-08-25T01:32:52.329Z,101340.94
2022-08-25T01:35:19.467Z,101341.97
2022-08-25T01:37:46.531Z,101346.25
2022-08-25T01:40:13.787Z,101339.41
2022-08-25T01:43:03.251Z,101340.81
2022-08-25T01:45:30.199Z,101335.06
2022-08-25T01:47:57.144Z,101337.75
2022-08-25T01:50:24.770Z,101342.56
2022-08-25T01:53:05.264Z,101336.63
2022-08-25T01:55:51.472Z,101332.84
2022-08-25T01:58:25.854Z,101340.63
2022-08-25T02:00:57.032Z,101336.88
2022-08-25T02:03:26.201Z,101333.84
2022-08-25T02:05:54.793Z,101335.75
2022-08-25T02:08:35.407Z,101339.06
2022-08-25T02:11:16.857Z,101331.63
2022-08-25T02:13:43.969Z,101323.03
2022-08-25T02:16:17.134Z,101322.97
2022-08-25T02:18:46.470Z,101326.91
2022-08-25T02:21:14.658Z,101312.06
2022-08-25T02:23:43.072Z,101317.44
2022-08-25T02:26:10.556Z,101311.88
2022-08-25T02:28:37.824Z,101315.19
2022-08-25T02:31:06.313Z,101311.22
2022-08-25T02:33:33.307Z,101309.09
2022-08-25T02:36:01.221Z,101304.63
2022-08-25T02:38:29.822Z,101288.88
2022-08-25T02:40:58.815Z,101284.91
2022-08-25T02:43:26.884Z,101288.41
2022-08-25T02:45:55.696Z,101280.44
2022-08-25T02:48:23.434Z,101286.53
2022-08-25T02:50:53.548Z,101282.03
2022-08-25T02:53:21.596Z,101283.28
2022-08-25T02:55:48.559Z,101277.53
2022-08-25T02:58:16.020Z,101278.78
2022-08-25T03:00:43.239Z,101278.69
2022-08-25T03:03:14.642Z,101279.22
2022-08-25T03:05:45.393Z,101275.91
2022-08-25T03:08:18.744Z,101264.84
2022-08-25T03:10:45.712Z,101259.94
2022-08-25T03:13:14.378Z,101265.47
2022-08-25T03:15:42.566Z,101253.78
2022-08-25T03:18:11.690Z,101261.56
2022-08-25T03:20:41.101Z,101253.34
2022-08-25T03:23:08.738Z,101255.16
2022-08-25T03:25:54.631Z,101254.53
2022-08-25T03:28:25.039Z,101257.19
2022-08-25T03:30:57.559Z,101256.78
2022-08-25T03:33:24.504Z,101253.72
2022-08-25T03:35:51.387Z,101238.97
2022-08-25T03:38:18.288Z,101247.34
2022-08-25T03:40:45.235Z,101242.63
2022-08-25T03:43:12.548Z,101237.44
2022-08-25T03:45:44.754Z,101241.53
2022-08-25T03:48:12.381Z,101242.59
2022-08-25T03:50:51.309Z,101239.38
2022-08-25T03:53:20.276Z,101247.16
2022-08-25T03:55:47.830Z,101233.72
2022-08-25T03:58:15.334Z,101230.78
2022-08-25T04:00:42.607Z,101228.56
2022-08-25T04:03:09.618Z,101226.94
2022-08-25T04:05:36.549Z,101225.72
2022-08-25T04:08:04.736Z,101215.06
2022-08-25T04:10:31.971Z,101213.88
2022-08-25T04:12:59.617Z,101216.38
2022-08-25T04:15:28.577Z,101224.06
2022-08-25T04:17:59.061Z,101219.97
2022-08-25T04:20:26.763Z,101231.91
2022-08-25T04:22:53.823Z,101225.16
2022-08-25T04:25:20.801Z,101239.47
2022-08-25T04:27:48.356Z,101231.69
2022-08-25T04:30:15.554Z,101227.63
2022-08-25T04:32:42.496Z,101230.47
2022-08-25T04:35:10.545Z,101233.31
2022-08-25T04:37:37.435Z,101239.47
2022-08-25T04:40:05.236Z,101237.75
2022-08-25T04:42:32.456Z,101237.31
2022-08-25T04:45:01.853Z,101243.00
2022-08-25T04:47:28.886Z,101237.66
2022-08-25T04:49:56.089Z,101242.50
2022-08-25T04:52:22.985Z,101225.31
2022-08-25T04:54:49.890Z,101227.59
2022-08-25T04:57:16.796Z,101231.28
2022-08-25T04:59:43.704Z,101232.09
2022-08-25T05:02:10.785Z,101230.50
2022-08-25T05:04:41.536Z,101230.88
2022-08-25T05:07:09.070Z,101233.94
2022-08-25T05:09:36.500Z,101233.53
2022-08-25T05:12:04.550Z,101231.44
2022-08-25T05:14:32.594Z,101233.72
2022-08-25T05:16:59.742Z,101236.81
2022-08-25T05:19:31.064Z,101234.91
2022-08-25T05:21:58.329Z,101236.72
2022-08-25T05:24:26.679Z,101234.09
2022-08-25T05:26:53.863Z,101240.00
2022-08-25T05:29:20.904Z,101242.53
2022-08-25T05:31:50.659Z,101240.22
2022-08-25T05:34:19.455Z,101246.59
2022-08-25T05:36:47.545Z,101249.16
2022-08-25T05:39:14.695Z,101253.56
2022-08-25T05:41:41.633Z,101252.97
2022-08-25T05:44:08.615Z,101250.56
2022-08-25T05:46:35.564Z,101258.25
2022-08-25T05:49:02.737Z,101259.91
2022-08-25T05:51:29.639Z,101256.72
2022-08-25T05:53:56.606Z,101256.28
2022-08-25T05:56:23.623Z,101256.84
2022-08-25T05:58:51.751Z,101250.84
2022-08-25T06:01:47.078Z,101244.69
2022-08-25T06:04:18.182Z,101238.53
2022-08-25T06:06:45.286Z,101241.97
2022-08-25T06:09:12.262Z,101238.69
2022-08-25T06:11:40.613Z,101234.03
2022-08-25T06:14:14.190Z,101242.31
2022-08-25T06:16:41.566Z,101229.50
2022-08-25T06:19:10.232Z,101235.75
2022-08-25T06:21:39.687Z,101231.03
2022-08-25T06:24:12.068Z,101227.78
2022-08-25T06:26:41.860Z,101220.94
2022-08-25T06:29:08.757Z,101213.13
2022-08-25T06:31:35.997Z,101209.84
2022-08-25T06:34:03.007Z,101217.53
2022-08-25T06:36:30.213Z,101213.72
2022-08-25T06:39:00.866Z,101214.44
2022-08-25T06:41:36.587Z,101205.53
2022-08-25T06:44:05.421Z,101220.63
2022-08-25T06:46:36.455Z,101221.78
2022-08-25T06:49:05.929Z,101231.91
2022-08-25T06:51:35.042Z,101226.50
2022-08-25T06:54:02.469Z,101233.34
2022-08-25T06:56:29.371Z,101233.34
2022-08-25T06:58:56.270Z,101229.00
2022-08-25T07:01:27.156Z,101230.16
2022-08-25T07:03:59.573Z,101224.25
2022-08-25T07:06:31.085Z,101223.41
2022-08-25T07:08:58.674Z,101214.69
2022-08-25T07:11:29.816Z,101221.66
2022-08-25T07:13:56.836Z,101214.31
2022-08-25T07:16:29.594Z,101223.53
2022-08-25T07:18:59.111Z,101216.66
2022-08-25T07:21:33.159Z,101218.50
2022-08-25T07:24:06.323Z,101229.38
2022-08-25T07:26:38.775Z,101215.78
2022-08-25T07:29:18.405Z,101222.59
2022-08-25T07:31:47.191Z,101223.72
2022-08-25T07:34:33.017Z,101219.41
2022-08-25T07:37:05.181Z,101225.31
2022-08-25T07:39:36.518Z,101228.13
2022-08-25T07:42:03.554Z,101228.41
2022-08-25T07:44:31.128Z,101227.03
2022-08-25T07:46:58.375Z,101218.69
2022-08-25T07:49:35.989Z,101215.44
2022-08-25T07:52:07.037Z,101214.59
2022-08-25T07:54:38.058Z,101219.88
2022-08-25T07:57:08.970Z,101217.59
2022-08-25T07:59:41.565Z,101212.75
2022-08-25T08:02:17.729Z,101218.47
2022-08-25T08:04:51.159Z,101220.25
2022-08-25T08:07:42.360Z,101223.66
2022-08-25T08:13:01.775Z,101220.13
2022-08-25T08:15:29.710Z,101217.28
2022-08-25T08:17:59.193Z,101216.09
2022-08-25T08:20:28.766Z,101221.56
2022-08-25T08:22:55.874Z,101221.50
2022-08-25T08:25:27.093Z,101211.78
2022-08-25T08:27:55.436Z,101224.09
2022-08-25T08:30:26.689Z,101223.34
2022-08-25T08:33:13.533Z,101222.75
2022-08-25T08:35:41.606Z,101212.72
2022-08-25T08:38:14.447Z,101210.81
2022-08-25T08:41:54.555Z,101222.59
2022-08-25T08:44:44.616Z,101220.38
2022-08-25T08:47:27.406Z,101223.25
2022-08-25T08:50:00.780Z,101225.50
2022-08-25T08:52:55.314Z,101218.81
2022-08-25T08:55:39.661Z,101219.53
2022-08-25T08:58:41.763Z,101221.09
2022-08-25T09:01:14.155Z,101220.78
2022-08-25T09:04:18.326Z,101219.66
2022-08-25T09:06:49.565Z,101216.00
2022-08-25T09:09:29.013Z,101212.63
2022-08-25T09:12:20.139Z,101208.69
2022-08-25T09:15:12.649Z,101211.69
2022-08-25T09:18:08.607Z,101209.69
2022-08-25T09:20:59.852Z,101212.25
2022-08-25T09:23:58.565Z,101210.25
2022-08-25T09:26:37.035Z,101220.28
2022-08-25T09:29:23.277Z,101216.25
2022-08-25T09:31:58.174Z,101216.69
2022-08-25T09:34:32.942Z,101216.38
2022-08-25T09:37:01.088Z,101223.41
2022-08-25T09:39:28.193Z,101213.81
2022-08-25T09:42:00.368Z,101210.28
2022-08-25T09:44:45.436Z,101214.59
2022-08-25T09:47:18.124Z,101212.09
2022-08-25T09:50:00.675Z,101208.91
2022-08-25T09:52:38.505Z,101210.00
2022-08-25T09:55:08.319Z,101198.91
2022-08-25T09:57:44.433Z,101195.81
2022-08-25T10:00:14.781Z,101203.84
2022-08-25T10:02:43.926Z,101201.81
2022-08-25T10:05:23.708Z,101199.50
2022-08-25T10:08:02.030Z,101200.47
2022-08-25T10:10:34.588Z,101203.25
2022-08-25T10:13:03.661Z,101187.53
2022-08-25T10:15:35.926Z,101190.00
2022-08-25T10:18:27.443Z,101181.56
2022-08-25T10:21:17.520Z,101182.44
2022-08-25T10:23:53.444Z,101180.84
2022-08-25T10:26:47.681Z,101189.03
2022-08-25T10:29:44.784Z,101179.84
2022-08-25T10:32:42.504Z,101186.53
2022-08-25T10:35:20.902Z,101184.22
2022-08-25T10:38:36.269Z,101175.13
2022-08-25T10:41:28.214Z,101174.13
2022-08-25T10:44:50.872Z,101179.91
2022-08-25T10:47:41.482Z,101169.31
2022-08-25T10:50:33.025Z,101171.28
2022-08-25T10:53:27.040Z,101161.88
2022-08-25T10:56:17.393Z,101162.25
2022-08-25T10:59:04.464Z,101170.25
2022-08-25T11:02:17.134Z,101159.88
2022-08-25T11:05:00.236Z,101157.56
2022-08-25T11:07:40.870Z,101155.22
2022-08-25T11:10:47.971Z,101150.34
2022-08-25T11:13:48.669Z,101161.94
2022-08-25T11:16:34.044Z,101162.13
2022-08-25T11:19:19.425Z,101167.91
2022-08-25T11:22:16.658Z,101152.66
2022-08-25T11:25:40.225Z,101145.66
2022-08-25T11:28:10.465Z,101142.06
2022-08-25T11:30:38.965Z,101144.66
2022-08-25T11:33:12.382Z,101157.03
2022-08-25T11:35:51.417Z,101160.69
2022-08-25T11:38:55.274Z,101156.97
2022-08-25T11:41:58.681Z,101160.56
2022-08-25T11:45:18.755Z,101161.56
2022-08-25T11:48:14.822Z,101149.00
2022-08-25T11:51:03.107Z,101160.31
2022-08-25T11:53:38.887Z,101148.28
2022-08-25T11:56:35.096Z,101150.34
2022-08-25T11:59:02.414Z,101152.84
2022-08-25T12:01:43.153Z,101149.78
2022-08-25T12:04:42.206Z,101160.13
2022-08-25T12:07:19.104Z,101140.91
2022-08-25T12:09:53.858Z,101147.38
2022-08-25T12:12:43.968Z,101158.16
2022-08-25T12:15:32.579Z,101151.59
2022-08-25T12:18:46.037Z,101150.75
2022-08-25T12:21:15.282Z,101154.50
2022-08-25T12:24:10.453Z,101153.31
2022-08-25T12:26:49.361Z,101164.91
2022-08-25T12:29:28.248Z,101163.41
2022-08-25T12:31:59.143Z,101160.63
2022-08-25T12:35:24.730Z,101163.75
2022-08-25T12:38:08.898Z,101157.16
2022-08-25T12:40:43.862Z,101157.59
2022-08-25T12:43:26.706Z,101149.50
2022-08-25T12:46:21.130Z,101144.19
2022-08-25T12:49:12.866Z,101155.09
2022-08-25T12:51:48.625Z,101152.84
2022-08-25T12:54:23.996Z,101158.06
2022-08-25T12:56:57.533Z,101154.00
2022-08-25T12:59:39.828Z,101159.19
2022-08-25T13:02:52.028Z,101150.28
2022-08-25T13:06:12.656Z,101140.88
2022-08-25T13:09:20.701Z,101157.97
2022-08-25T13:13:02.506Z,101151.81
2022-08-25T13:15:54.858Z,101146.59
2022-08-25T13:18:27.921Z,101150.28
2022-08-25T13:21:16.888Z,101148.78
2022-08-25T13:23:50.492Z,101151.78
2022-08-25T13:26:27.306Z,101151.59
2022-08-25T13:29:09.253Z,101161.16
2022-08-25T13:31:38.484Z,101143.81
2022-08-25T13:34:19.768Z,101135.78
2022-08-25T13:37:07.865Z,101148.88
2022-08-25T13:39:55.322Z,101142.09
2022-08-25T13:42:28.661Z,101146.13
2022-08-25T13:44:59.003Z,101139.97
2022-08-25T13:47:45.006Z,101142.47
2022-08-25T13:50:26.825Z,101149.31
2022-08-25T13:52:59.914Z,101156.84
2022-08-25T13:55:52.337Z,101154.38
2022-08-25T13:58:38.869Z,101149.25
2022-08-25T14:01:23.598Z,101159.41
2022-08-25T14:04:34.941Z,101152.41
2022-08-25T14:07:33.763Z,101162.69
2022-08-25T14:10:07.294Z,101164.25
2022-08-25T14:12:49.695Z,101162.06
2022-08-25T14:15:22.092Z,101173.03
2022-08-25T14:18:21.712Z,101168.66
2022-08-25T14:20:56.426Z,101172.13
2022-08-25T14:23:27.385Z,101179.22
2022-08-25T14:25:58.618Z,101181.25
2022-08-25T14:28:32.034Z,101175.09
2022-08-25T14:31:24.593Z,101185.13
2022-08-25T14:34:00.398Z,101188.25
2022-08-25T14:36:30.115Z,101192.59
2022-08-25T14:38:57.725Z,101187.72
2022-08-25T14:41:26.605Z,101180.28
2022-08-25T14:43:53.951Z,101183.56
2022-08-25T14:46:25.510Z,101189.16
2022-08-25T14:48:59.533Z,101187.50
2022-08-25T14:51:28.629Z,101189.41
2022-08-25T14:54:02.756Z,101198.50
2022-08-25T14:56:31.261Z,101196.78
2022-08-25T14:58:59.740Z,101202.53
2022-08-25T15:01:30.025Z,101206.09
2022-08-25T15:04:10.466Z,101193.41
2022-08-25T15:06:41.822Z,101193.00
2022-08-25T15:09:16.390Z,101205.91
2022-08-25T15:11:50.981Z,101193.06
2022-08-25T15:14:33.405Z,101196.91
2022-08-25T15:17:03.602Z,101191.56
2022-08-25T15:19:30.600Z,101193.34
2022-08-25T15:21:59.387Z,101198.53
2022-08-25T15:24:28.519Z,101196.59
2022-08-25T15:26:59.469Z,101192.44
2022-08-25T15:29:30.103Z,101187.69
2022-08-25T15:31:59.664Z,101183.03
2022-08-25T15:34:26.819Z,101190.56
2022-08-25T15:36:54.022Z,101188.47
2022-08-25T15:39:21.452Z,101183.63
2022-08-25T15:41:49.832Z,101186.44
2022-08-25T15:44:18.862Z,101185.91
2022-08-25T15:46:49.671Z,101186.75
2022-08-25T15:49:20.901Z,101197.41
2022-08-25T15:51:56.966Z,101189.03
2022-08-25T15:54:30.347Z,101186.41
2022-08-25T15:57:01.543Z,101186.13
2022-08-25T15:59:30.183Z,101195.84
2022-08-25T16:01:57.440Z,101188.56
2022-08-25T16:04:27.631Z,101184.84
2022-08-25T16:06:55.510Z,101191.28
2022-08-25T16:09:23.521Z,101194.50
2022-08-25T16:11:55.731Z,101193.78
2022-08-25T16:14:25.952Z,101196.66
2022-08-25T16:16:52.932Z,101198.69
2022-08-25T16:19:19.862Z,101201.59
2022-08-25T16:21:47.479Z,101195.53
2022-08-25T16:24:15.139Z,101202.81
2022-08-25T16:26:48.101Z,101203.50
2022-08-25T16:29:16.558Z,101199.78
2022-08-25T16:31:45.052Z,101195.41
2022-08-25T16:34:20.044Z,101195.06
2022-08-25T16:36:47.315Z,101193.50
2022-08-25T16:39:19.854Z,101198.19
2022-08-25T16:41:47.674Z,101185.03
2022-08-25T16:44:14.594Z,101202.94
2022-08-25T16:46:42.931Z,101195.28
2022-08-25T16:49:14.037Z,101201.75
2022-08-25T16:51:43.583Z,101205.50
2022-08-25T16:54:30.939Z,101204.66
2022-08-25T16:56:57.999Z,101206.28
2022-08-25T16:59:26.044Z,101204.78
2022-08-25T17:01:53.681Z,101206.19
2022-08-25T17:04:21.550Z,101209.03
2022-08-25T17:06:58.955Z,101209.84
2022-08-25T17:09:26.130Z,101204.44
2022-08-25T17:11:56.783Z,101207.06
2022-08-25T17:14:24.527Z,101209.09
2022-08-25T17:16:54.998Z,101210.56
2022-08-25T17:19:23.599Z,101215.41
2022-08-25T17:21:52.162Z,101222.94
2022-08-25T17:24:19.360Z,101220.44
2022-08-25T17:26:50.847Z,101221.47
2022-08-25T17:29:18.945Z,101232.25
2022-08-25T17:31:48.427Z,101239.66
2022-08-25T17:34:16.921Z,101241.88
2022-08-25T17:36:48.462Z,101243.75
2022-08-25T17:39:18.191Z,101259.78
2022-08-25T17:41:45.593Z,101260.22
2022-08-25T17:44:13.510Z,101254.88
2022-08-25T17:46:47.029Z,101267.69
2022-08-25T17:49:15.761Z,101270.38
2022-08-25T17:51:42.856Z,101278.16
2022-08-25T17:54:10.912Z,101285.13
2022-08-25T17:56:38.097Z,101282.91
2022-08-25T17:59:08.788Z,101289.34
2022-08-25T18:01:40.137Z,101279.25
2022-08-25T18:04:17.419Z,101285.72
2022-08-25T18:06:47.562Z,101290.50
2022-08-25T18:09:16.449Z,101293.81
2022-08-25T18:11:45.181Z,101283.94
2022-08-25T18:14:13.903Z,101290.47
2022-08-25T18:16:40.856Z,101290.03
2022-08-25T18:19:10.836Z,101289.72
2022-08-25T18:21:38.705Z,101291.41
2022-08-25T18:24:07.440Z,101287.22
2022-08-25T18:26:35.340Z,101291.16
2022-08-25T18:29:02.535Z,101285.75
2022-08-25T18:31:29.526Z,101282.25
2022-08-25T18:33:57.692Z,101299.91
2022-08-25T18:36:24.646Z,101310.78
2022-08-25T18:39:11.309Z,101299.75
2022-08-25T18:41:42.747Z,101310.25
2022-08-25T18:44:12.314Z,101310.97
2022-08-25T18:46:42.732Z,101310.25
2022-08-25T18:49:11.455Z,101315.13
2022-08-25T18:51:47.461Z,101324.13
2022-08-25T18:54:23.086Z,101328.38
2022-08-25T18:56:56.462Z,101325.91
2022-08-25T18:59:24.262Z,101330.31
2022-08-25T19:01:53.088Z,101345.75
2022-08-25T19:04:20.440Z,101344.25
2022-08-25T19:06:55.381Z,101338.97
2022-08-25T19:09:22.620Z,101333.00
2022-08-25T19:11:49.543Z,101351.56
2022-08-25T19:14:17.003Z,101346.94
2022-08-25T19:16:45.819Z,101353.41
2022-08-25T19:19:14.123Z,101356.09
2022-08-25T19:21:42.238Z,101360.66
2022-08-25T19:24:11.648Z,101358.44
2022-08-25T19:26:39.495Z,101356.00
2022-08-25T19:29:15.407Z,101364.38
2022-08-25T19:31:47.875Z,101358.06
2022-08-25T19:34:28.092Z,101366.84
2022-08-25T19:36:57.172Z,101364.25
2022-08-25T19:39:25.681Z,101376.34
2022-08-25T19:41:52.642Z,101382.31
2022-08-25T19:44:20.616Z,101388.47
2022-08-25T19:46:47.777Z,101395.16
2022-08-25T19:49:31.756Z,101386.88
2022-08-25T19:52:02.904Z,101383.09
2022-08-25T19:54:44.638Z,101381.88
2022-08-25T19:57:13.470Z,101384.28
2022-08-25T19:59:55.412Z,101386.72
2022-08-25T20:02:25.952Z,101386.13
2022-08-25T20:05:02.255Z,101376.03
2022-08-25T20:07:31.466Z,101385.44
2022-08-25T20:09:59.741Z,101380.47
2022-08-25T20:12:28.161Z,101390.03
2022-08-25T20:14:56.235Z,101389.84
2022-08-25T20:17:26.060Z,101396.59
2022-08-25T20:19:59.521Z,101400.41
2022-08-25T20:22:31.588Z,101394.56
2022-08-25T20:25:13.381Z,101402.13
2022-08-25T20:27:45.956Z,101400.22
2022-08-25T20:30:24.019Z,101403.00
2022-08-25T20:32:52.241Z,101395.22
2022-08-25T20:35:20.543Z,101396.22
2022-08-25T20:37:54.379Z,101405.22
2022-08-25T20:40:25.828Z,101405.97
2022-08-25T20:42:54.915Z,101406.06
2022-08-25T20:45:22.836Z,101424.19
2022-08-25T20:47:50.273Z,101413.88
2022-08-25T20:50:18.944Z,101425.88
2022-08-25T20:52:46.213Z,101416.41
2022-08-25T20:55:18.932Z,101421.66
2022-08-25T20:57:46.741Z,101422.06
2022-08-25T21:00:16.016Z,101428.84
2022-08-25T21:02:46.166Z,101431.56
2022-08-25T21:05:13.989Z,101428.78
2022-08-25T21:07:41.648Z,101420.84
2022-08-25T21:10:14.109Z,101431.66
2022-08-25T21:12:42.253Z,101427.22
2022-08-25T21:15:10.975Z,101434.66
2022-08-25T21:17:38.136Z,101422.78
2022-08-25T21:20:08.356Z,101437.09
2022-08-25T21:22:37.703Z,101436.50
2022-08-25T21:25:06.629Z,101432.69
2022-08-25T21:27:33.643Z,101442.72
2022-08-25T21:30:00.978Z,101440.03
2022-08-25T21:32:27.998Z,101442.16
2022-08-25T21:34:55.576Z,101437.09
2022-08-25T21:37:24.760Z,101452.16
2022-08-25T21:39:52.891Z,101457.53
2022-08-25T21:42:24.806Z,101461.09
2022-08-25T21:44:52.587Z,101449.25
2022-08-25T21:47:21.347Z,101463.88
2022-08-25T21:49:49.718Z,101457.63
2022-08-25T21:52:17.286Z,101454.44
2022-08-25T21:54:45.011Z,101460.47
2022-08-25T21:57:12.761Z,101461.41
2022-08-25T21:59:41.335Z,101453.34
2022-08-25T22:02:13.285Z,101451.81
2022-08-25T22:04:42.048Z,101457.16
2022-08-25T22:07:10.878Z,101458.88
2022-08-25T22:09:39.113Z,101463.13
2022-08-25T22:12:06.925Z,101456.63
2022-08-25T22:14:36.139Z,101459.00
2022-08-25T22:17:03.623Z,101466.09
2022-08-25T22:19:30.653Z,101466.47
2022-08-25T22:22:01.378Z,101465.59
2022-08-25T22:24:28.637Z,101469.50
2022-08-25T22:26:56.793Z,101469.06
2022-08-25T22:29:25.142Z,101470.84
2022-08-25T22:31:58.572Z,101469.94
2022-08-25T22:34:32.649Z,101471.88
2022-08-25T22:37:01.934Z,101484.00
2022-08-25T22:39:31.720Z,101481.59
2022-08-25T22:41:59.803Z,101468.34
2022-08-25T22:44:27.047Z,101479.63
2022-08-25T22:46:54.027Z,101473.06
2022-08-25T22:49:21.863Z,101480.25
2022-08-25T22:51:49.125Z,101467.75
2022-08-25T22:54:16.191Z,101472.59
2022-08-25T22:56:43.428Z,101475.88
2022-08-25T22:59:13.686Z,101472.56
2022-08-25T23:01:43.293Z,101471.59
2022-08-25T23:04:10.761Z,101470.97
2022-08-25T23:06:39.259Z,101472.22
2022-08-25T23:09:08.840Z,101467.34
2022-08-25T23:11:38.478Z,101478.50
2022-08-25T23:14:10.079Z,101478.88
2022-08-25T23:16:42.901Z,101483.38
2022-08-25T23:19:13.862Z,101482.06
2022-08-25T23:22:01.865Z,101470.59
2022-08-25T23:24:30.782Z,101471.97
2022-08-25T23:27:00.615Z,101473.25
2022-08-25T23:29:28.446Z,101482.41
2022-08-25T23:31:56.728Z,101470.88
2022-08-25T23:34:24.828Z,101473.28
2022-08-25T23:36:52.390Z,101475.31
2022-08-25T23:39:21.647Z,101468.47
2022-08-25T23:41:49.046Z,101460.19
2022-08-25T23:44:17.383Z,101455.28
2022-08-25T23:46:45.619Z,101464.50
2022-08-25T23:49:18.360Z,101462.50
2022-08-25T23:51:49.057Z,101451.09
2022-08-25T23:54:18.797Z,101460.63
2022-08-25T23:56:52.452Z,101462.16
2022-08-25T23:59:24.022Z,101475.59
